sensor_id;sensor_type;location;lat;lon;timestamp;P1;durP1;ratioP1;P2;durP2;ratioP2
18693;SDS011;9477;51.414;10.362;2023-02-25T00:01:59;10.47;;;2.70;;
18693;SDS011;9477;51.414;10.362;2023-02-25T00:04:04;14.70;;;2.93;;
18693;SDS011;9477;51.414;10.362;2023-02-25T00:06:08;13.03;;;2.70;;
18693;SDS011;9477;51.414;10.362;2023-02-25T00:08:13;17.77;;;2.70;;
18693;SDS011;9477;51.414;10.362;2023-02-25T00:10:17;10.97;;;2.50;;
18693;SDS011;9477;51.414;10.362;2023-02-25T00:12:20;16.80;;;3.27;;
18693;SDS011;9477;51.414;10.362;2023-02-25T00:14:24;21.97;;;3.07;;
18693;SDS011;9477;51.414;10.362;2023-02-25T00:16:27;10.17;;;3.13;;
18693;SDS011;9477;51.414;10.362;2023-02-25T00:18:30;12.67;;;2.77;;
18693;SDS011;9477;51.414;10.362;2023-02-25T00:20:33;11.43;;;3.17;;
18693;SDS011;9477;51.414;10.362;2023-02-25T00:22:36;13.63;;;2.97;;
18693;SDS011;9477;51.414;10.362;2023-02-25T00:24:39;13.57;;;3.27;;
18693;SDS011;9477;51.414;10.362;2023-02-25T00:26:42;14.33;;;3.37;;
18693;SDS011;9477;51.414;10.362;2023-02-25T00:28:45;10.33;;;2.10;;
18693;SDS011;9477;51.414;10.362;2023-02-25T00:30:49;13.60;;;3.03;;
18693;SDS011;9477;51.414;10.362;2023-02-25T00:32:52;10.00;;;2.30;;
18693;SDS011;9477;51.414;10.362;2023-02-25T00:34:55;11.07;;;2.53;;
18693;SDS011;9477;51.414;10.362;2023-02-25T00:36:58;13.03;;;2.73;;
18693;SDS011;9477;51.414;10.362;2023-02-25T00:39:01;13.80;;;2.33;;
18693;SDS011;9477;51.414;10.362;2023-02-25T00:41:05;16.50;;;2.87;;
18693;SDS011;9477;51.414;10.362;2023-02-25T00:43:12;10.97;;;2.63;;
18693;SDS011;9477;51.414;10.362;2023-02-25T00:45:14;22.00;;;3.53;;
18693;SDS011;9477;51.414;10.362;2023-02-25T00:47:19;14.67;;;3.23;;
18693;SDS011;9477;51.414;10.362;2023-02-25T00:49:22;11.77;;;2.90;;
18693;SDS011;9477;51.414;10.362;2023-02-25T00:51:32;14.13;;;2.63;;
18693;SDS011;9477;51.414;10.362;2023-02-25T00:53:35;15.40;;;3.37;;
18693;SDS011;9477;51.414;10.362;2023-02-25T00:55:39;12.37;;;2.87;;
18693;SDS011;9477;51.414;10.362;2023-02-25T00:57:42;15.37;;;3.47;;
18693;SDS011;9477;51.414;10.362;2023-02-25T00:59:45;14.20;;;2.90;;
18693;SDS011;9477;51.414;10.362;2023-02-25T01:01:48;11.57;;;2.90;;
18693;SDS011;9477;51.414;10.362;2023-02-25T01:03:52;12.57;;;2.60;;
18693;SDS011;9477;51.414;10.362;2023-02-25T01:05:57;13.50;;;3.13;;
18693;SDS011;9477;51.414;10.362;2023-02-25T01:08:00;13.67;;;3.23;;
18693;SDS011;9477;51.414;10.362;2023-02-25T01:10:03;14.93;;;2.80;;
18693;SDS011;9477;51.414;10.362;2023-02-25T01:12:07;11.97;;;2.90;;
18693;SDS011;9477;51.414;10.362;2023-02-25T01:14:11;16.63;;;2.40;;
18693;SDS011;9477;51.414;10.362;2023-02-25T01:16:16;19.33;;;2.73;;
18693;SDS011;9477;51.414;10.362;2023-02-25T01:18:21;15.63;;;2.77;;
18693;SDS011;9477;51.414;10.362;2023-02-25T01:20:25;18.23;;;3.13;;
18693;SDS011;9477;51.414;10.362;2023-02-25T01:22:30;12.70;;;2.80;;
18693;SDS011;9477;51.414;10.362;2023-02-25T01:24:32;15.57;;;3.03;;
18693;SDS011;9477;51.414;10.362;2023-02-25T01:26:36;18.23;;;3.00;;
18693;SDS011;9477;51.414;10.362;2023-02-25T01:28:41;14.27;;;2.90;;
18693;SDS011;9477;51.414;10.362;2023-02-25T01:30:44;9.07;;;2.40;;
18693;SDS011;9477;51.414;10.362;2023-02-25T01:32:47;18.20;;;3.07;;
18693;SDS011;9477;51.414;10.362;2023-02-25T01:34:51;17.33;;;2.53;;
18693;SDS011;9477;51.414;10.362;2023-02-25T01:36:55;9.90;;;2.13;;
18693;SDS011;9477;51.414;10.362;2023-02-25T01:38:59;11.17;;;2.63;;
18693;SDS011;9477;51.414;10.362;2023-02-25T01:41:03;14.27;;;2.73;;
18693;SDS011;9477;51.414;10.362;2023-02-25T01:43:07;17.70;;;2.63;;
18693;SDS011;9477;51.414;10.362;2023-02-25T01:45:32;11.60;;;2.80;;
18693;SDS011;9477;51.414;10.362;2023-02-25T01:47:36;13.00;;;2.67;;
18693;SDS011;9477;51.414;10.362;2023-02-25T01:49:42;10.17;;;2.50;;
18693;SDS011;9477;51.414;10.362;2023-02-25T01:51:48;11.97;;;2.90;;
18693;SDS011;9477;51.414;10.362;2023-02-25T01:53:55;11.33;;;2.80;;
18693;SDS011;9477;51.414;10.362;2023-02-25T01:55:58;16.17;;;2.17;;
18693;SDS011;9477;51.414;10.362;2023-02-25T01:58:04;13.53;;;2.80;;
18693;SDS011;9477;51.414;10.362;2023-02-25T02:00:07;18.93;;;2.70;;
18693;SDS011;9477;51.414;10.362;2023-02-25T02:02:17;11.00;;;2.53;;
18693;SDS011;9477;51.414;10.362;2023-02-25T02:04:22;9.80;;;2.40;;
18693;SDS011;9477;51.414;10.362;2023-02-25T02:06:28;14.47;;;3.03;;
18693;SDS011;9477;51.414;10.362;2023-02-25T02:08:35;14.57;;;3.10;;
18693;SDS011;9477;51.414;10.362;2023-02-25T02:10:40;11.53;;;2.37;;
18693;SDS011;9477;51.414;10.362;2023-02-25T02:12:43;11.47;;;2.90;;
18693;SDS011;9477;51.414;10.362;2023-02-25T02:14:48;17.03;;;2.80;;
18693;SDS011;9477;51.414;10.362;2023-02-25T02:16:57;14.97;;;2.50;;
18693;SDS011;9477;51.414;10.362;2023-02-25T02:19:20;16.67;;;2.40;;
18693;SDS011;9477;51.414;10.362;2023-02-25T02:21:42;14.87;;;2.77;;
18693;SDS011;9477;51.414;10.362;2023-02-25T02:23:57;12.17;;;2.90;;
18693;SDS011;9477;51.414;10.362;2023-02-25T02:26:35;12.17;;;3.20;;
18693;SDS011;9477;51.414;10.362;2023-02-25T02:31:27;10.30;;;2.57;;
18693;SDS011;9477;51.414;10.362;2023-02-25T02:33:37;11.90;;;2.63;;
18693;SDS011;9477;51.414;10.362;2023-02-25T02:35:48;12.07;;;2.83;;
18693;SDS011;9477;51.414;10.362;2023-02-25T02:37:59;14.47;;;2.90;;
18693;SDS011;9477;51.414;10.362;2023-02-25T02:40:20;12.20;;;2.23;;
18693;SDS011;9477;51.414;10.362;2023-02-25T02:42:35;11.77;;;2.13;;
18693;SDS011;9477;51.414;10.362;2023-02-25T02:44:42;11.00;;;2.23;;
18693;SDS011;9477;51.414;10.362;2023-02-25T02:46:54;11.20;;;2.43;;
18693;SDS011;9477;51.414;10.362;2023-02-25T02:49:04;13.33;;;3.33;;
18693;SDS011;9477;51.414;10.362;2023-02-25T02:51:11;19.60;;;2.93;;
18693;SDS011;9477;51.414;10.362;2023-02-25T02:53:19;18.20;;;3.30;;
18693;SDS011;9477;51.414;10.362;2023-02-25T02:55:28;11.70;;;2.17;;
18693;SDS011;9477;51.414;10.362;2023-02-25T02:57:35;10.97;;;2.50;;
18693;SDS011;9477;51.414;10.362;2023-02-25T02:59:43;10.37;;;3.00;;
18693;SDS011;9477;51.414;10.362;2023-02-25T03:01:51;12.50;;;2.93;;
18693;SDS011;9477;51.414;10.362;2023-02-25T03:04:00;7.57;;;2.30;;
18693;SDS011;9477;51.414;10.362;2023-02-25T03:06:06;15.30;;;3.03;;
18693;SDS011;9477;51.414;10.362;2023-02-25T03:08:13;15.10;;;3.37;;
18693;SDS011;9477;51.414;10.362;2023-02-25T03:10:20;12.17;;;2.50;;
18693;SDS011;9477;51.414;10.362;2023-02-25T03:12:23;22.33;;;3.73;;
18693;SDS011;9477;51.414;10.362;2023-02-25T03:14:26;14.00;;;2.67;;
18693;SDS011;9477;51.414;10.362;2023-02-25T03:16:30;17.37;;;3.47;;
18693;SDS011;9477;51.414;10.362;2023-02-25T03:18:40;12.53;;;2.47;;
18693;SDS011;9477;51.414;10.362;2023-02-25T03:20:48;14.50;;;2.70;;
18693;SDS011;9477;51.414;10.362;2023-02-25T03:22:54;11.27;;;2.53;;
18693;SDS011;9477;51.414;10.362;2023-02-25T03:25:02;13.17;;;2.50;;
18693;SDS011;9477;51.414;10.362;2023-02-25T03:27:24;13.80;;;2.67;;
18693;SDS011;9477;51.414;10.362;2023-02-25T03:29:29;10.33;;;1.90;;
18693;SDS011;9477;51.414;10.362;2023-02-25T03:31:32;7.47;;;2.03;;
18693;SDS011;9477;51.414;10.362;2023-02-25T03:33:42;12.83;;;2.30;;
18693;SDS011;9477;51.414;10.362;2023-02-25T03:35:49;13.07;;;2.70;;
18693;SDS011;9477;51.414;10.362;2023-02-25T03:37:55;11.33;;;2.73;;
18693;SDS011;9477;51.414;10.362;2023-02-25T03:40:03;9.47;;;2.83;;
18693;SDS011;9477;51.414;10.362;2023-02-25T03:42:12;6.20;;;2.10;;
18693;SDS011;9477;51.414;10.362;2023-02-25T03:44:19;15.60;;;2.27;;
18693;SDS011;9477;51.414;10.362;2023-02-25T03:46:26;8.67;;;2.07;;
18693;SDS011;9477;51.414;10.362;2023-02-25T03:48:31;8.33;;;2.33;;
18693;SDS011;9477;51.414;10.362;2023-02-25T03:50:39;8.43;;;1.97;;
18693;SDS011;9477;51.414;10.362;2023-02-25T03:52:46;16.63;;;2.60;;
18693;SDS011;9477;51.414;10.362;2023-02-25T03:54:49;10.50;;;2.50;;
18693;SDS011;9477;51.414;10.362;2023-02-25T03:56:53;11.93;;;2.67;;
18693;SDS011;9477;51.414;10.362;2023-02-25T03:58:56;14.57;;;2.93;;
18693;SDS011;9477;51.414;10.362;2023-02-25T04:00:59;9.90;;;2.40;;
18693;SDS011;9477;51.414;10.362;2023-02-25T04:03:05;9.53;;;2.53;;
18693;SDS011;9477;51.414;10.362;2023-02-25T04:05:08;12.17;;;2.80;;
18693;SDS011;9477;51.414;10.362;2023-02-25T04:07:12;12.70;;;2.30;;
18693;SDS011;9477;51.414;10.362;2023-02-25T04:09:15;13.63;;;3.07;;
18693;SDS011;9477;51.414;10.362;2023-02-25T04:11:18;8.50;;;2.03;;
18693;SDS011;9477;51.414;10.362;2023-02-25T04:13:23;6.87;;;2.23;;
18693;SDS011;9477;51.414;10.362;2023-02-25T04:15:26;13.10;;;2.23;;
18693;SDS011;9477;51.414;10.362;2023-02-25T04:17:29;13.53;;;2.60;;
18693;SDS011;9477;51.414;10.362;2023-02-25T04:19:32;12.00;;;2.73;;
18693;SDS011;9477;51.414;10.362;2023-02-25T04:21:35;16.33;;;3.23;;
18693;SDS011;9477;51.414;10.362;2023-02-25T04:23:41;11.50;;;2.57;;
18693;SDS011;9477;51.414;10.362;2023-02-25T04:25:44;10.23;;;2.70;;
18693;SDS011;9477;51.414;10.362;2023-02-25T04:27:46;9.23;;;2.33;;
18693;SDS011;9477;51.414;10.362;2023-02-25T04:29:49;9.87;;;2.37;;
18693;SDS011;9477;51.414;10.362;2023-02-25T04:31:52;8.30;;;1.87;;
18693;SDS011;9477;51.414;10.362;2023-02-25T04:33:55;8.50;;;1.80;;
18693;SDS011;9477;51.414;10.362;2023-02-25T04:35:58;10.33;;;2.10;;
18693;SDS011;9477;51.414;10.362;2023-02-25T04:38:01;6.83;;;2.00;;
18693;SDS011;9477;51.414;10.362;2023-02-25T04:40:08;11.33;;;2.37;;
18693;SDS011;9477;51.414;10.362;2023-02-25T04:42:15;7.20;;;1.87;;
18693;SDS011;9477;51.414;10.362;2023-02-25T04:44:18;10.07;;;2.43;;
18693;SDS011;9477;51.414;10.362;2023-02-25T04:46:21;5.83;;;1.70;;
18693;SDS011;9477;51.414;10.362;2023-02-25T04:48:24;9.30;;;1.97;;
18693;SDS011;9477;51.414;10.362;2023-02-25T04:50:27;6.93;;;2.03;;
18693;SDS011;9477;51.414;10.362;2023-02-25T04:52:30;13.27;;;1.87;;
18693;SDS011;9477;51.414;10.362;2023-02-25T04:54:33;7.70;;;2.10;;
18693;SDS011;9477;51.414;10.362;2023-02-25T04:56:37;11.40;;;2.40;;
18693;SDS011;9477;51.414;10.362;2023-02-25T04:58:40;5.33;;;1.63;;
18693;SDS011;9477;51.414;10.362;2023-02-25T05:00:43;8.00;;;2.00;;
18693;SDS011;9477;51.414;10.362;2023-02-25T05:02:49;9.80;;;2.00;;
18693;SDS011;9477;51.414;10.362;2023-02-25T05:04:52;9.93;;;1.87;;
18693;SDS011;9477;51.414;10.362;2023-02-25T05:06:55;4.83;;;1.73;;
18693;SDS011;9477;51.414;10.362;2023-02-25T05:08:58;5.43;;;1.70;;
18693;SDS011;9477;51.414;10.362;2023-02-25T05:11:01;10.97;;;2.10;;
18693;SDS011;9477;51.414;10.362;2023-02-25T05:13:06;5.57;;;1.97;;
18693;SDS011;9477;51.414;10.362;2023-02-25T05:15:10;7.70;;;2.10;;
18693;SDS011;9477;51.414;10.362;2023-02-25T05:17:13;9.13;;;2.50;;
18693;SDS011;9477;51.414;10.362;2023-02-25T05:19:17;10.93;;;1.90;;
18693;SDS011;9477;51.414;10.362;2023-02-25T05:21:23;11.10;;;2.70;;
18693;SDS011;9477;51.414;10.362;2023-02-25T05:23:27;8.10;;;2.17;;
18693;SDS011;9477;51.414;10.362;2023-02-25T05:25:30;5.77;;;2.03;;
18693;SDS011;9477;51.414;10.362;2023-02-25T05:27:33;10.63;;;2.17;;
18693;SDS011;9477;51.414;10.362;2023-02-25T05:29:38;6.43;;;2.00;;
18693;SDS011;9477;51.414;10.362;2023-02-25T05:31:41;8.37;;;2.30;;
18693;SDS011;9477;51.414;10.362;2023-02-25T05:33:44;11.17;;;2.43;;
18693;SDS011;9477;51.414;10.362;2023-02-25T05:35:47;6.97;;;2.00;;
18693;SDS011;9477;51.414;10.362;2023-02-25T05:37:50;16.53;;;3.03;;
18693;SDS011;9477;51.414;10.362;2023-02-25T05:39:53;9.23;;;2.10;;
18693;SDS011;9477;51.414;10.362;2023-02-25T05:41:55;9.00;;;2.30;;
18693;SDS011;9477;51.414;10.362;2023-02-25T05:43:58;13.53;;;2.77;;
18693;SDS011;9477;51.414;10.362;2023-02-25T05:46:03;11.13;;;2.90;;
18693;SDS011;9477;51.414;10.362;2023-02-25T05:48:11;7.30;;;2.17;;
18693;SDS011;9477;51.414;10.362;2023-02-25T05:50:14;11.43;;;2.80;;
18693;SDS011;9477;51.414;10.362;2023-02-25T05:52:17;5.77;;;1.97;;
18693;SDS011;9477;51.414;10.362;2023-02-25T05:54:20;12.70;;;3.53;;
18693;SDS011;9477;51.414;10.362;2023-02-25T05:56:23;12.50;;;3.20;;
18693;SDS011;9477;51.414;10.362;2023-02-25T05:58:32;12.27;;;5.00;;
18693;SDS011;9477;51.414;10.362;2023-02-25T06:00:36;11.73;;;3.10;;
18693;SDS011;9477;51.414;10.362;2023-02-25T06:02:41;9.80;;;3.23;;
18693;SDS011;9477;51.414;10.362;2023-02-25T06:04:45;13.47;;;3.53;;
18693;SDS011;9477;51.414;10.362;2023-02-25T06:06:48;11.87;;;2.70;;
18693;SDS011;9477;51.414;10.362;2023-02-25T06:08:52;14.07;;;2.90;;
18693;SDS011;9477;51.414;10.362;2023-02-25T06:10:54;6.53;;;2.03;;
18693;SDS011;9477;51.414;10.362;2023-02-25T06:12:57;6.63;;;3.20;;
18693;SDS011;9477;51.414;10.362;2023-02-25T06:15:01;7.70;;;2.47;;
18693;SDS011;9477;51.414;10.362;2023-02-25T06:17:03;13.37;;;3.10;;
18693;SDS011;9477;51.414;10.362;2023-02-25T06:19:09;9.80;;;3.13;;
18693;SDS011;9477;51.414;10.362;2023-02-25T06:21:12;10.33;;;3.03;;
18693;SDS011;9477;51.414;10.362;2023-02-25T06:23:16;6.53;;;2.53;;
18693;SDS011;9477;51.414;10.362;2023-02-25T06:25:19;8.27;;;2.73;;
18693;SDS011;9477;51.414;10.362;2023-02-25T06:27:22;10.57;;;3.13;;
18693;SDS011;9477;51.414;10.362;2023-02-25T06:29:25;10.83;;;3.20;;
18693;SDS011;9477;51.414;10.362;2023-02-25T06:31:28;7.23;;;2.10;;
18693;SDS011;9477;51.414;10.362;2023-02-25T06:33:31;7.10;;;2.20;;
18693;SDS011;9477;51.414;10.362;2023-02-25T06:35:35;8.90;;;2.80;;
18693;SDS011;9477;51.414;10.362;2023-02-25T06:37:38;6.93;;;2.07;;
18693;SDS011;9477;51.414;10.362;2023-02-25T06:39:41;10.73;;;2.43;;
18693;SDS011;9477;51.414;10.362;2023-02-25T06:41:44;9.83;;;2.73;;
18693;SDS011;9477;51.414;10.362;2023-02-25T06:43:47;7.70;;;2.20;;
18693;SDS011;9477;51.414;10.362;2023-02-25T06:45:52;8.23;;;2.10;;
18693;SDS011;9477;51.414;10.362;2023-02-25T06:47:55;4.90;;;1.83;;
18693;SDS011;9477;51.414;10.362;2023-02-25T06:49:58;7.00;;;1.97;;
18693;SDS011;9477;51.414;10.362;2023-02-25T06:52:04;6.00;;;1.63;;
18693;SDS011;9477;51.414;10.362;2023-02-25T06:54:07;5.20;;;1.57;;
18693;SDS011;9477;51.414;10.362;2023-02-25T06:56:10;10.47;;;2.20;;
18693;SDS011;9477;51.414;10.362;2023-02-25T06:58:14;4.63;;;1.60;;
18693;SDS011;9477;51.414;10.362;2023-02-25T07:00:18;4.90;;;1.90;;
18693;SDS011;9477;51.414;10.362;2023-02-25T07:02:21;6.43;;;2.00;;
18693;SDS011;9477;51.414;10.362;2023-02-25T07:04:24;5.73;;;1.87;;
18693;SDS011;9477;51.414;10.362;2023-02-25T07:06:27;7.37;;;2.00;;
18693;SDS011;9477;51.414;10.362;2023-02-25T07:08:31;6.37;;;1.70;;
18693;SDS011;9477;51.414;10.362;2023-02-25T07:10:34;5.03;;;1.83;;
18693;SDS011;9477;51.414;10.362;2023-02-25T07:12:37;7.97;;;2.03;;
18693;SDS011;9477;51.414;10.362;2023-02-25T07:14:40;5.83;;;2.10;;
18693;SDS011;9477;51.414;10.362;2023-02-25T07:16:43;5.90;;;1.83;;
18693;SDS011;9477;51.414;10.362;2023-02-25T07:18:46;9.40;;;2.20;;
18693;SDS011;9477;51.414;10.362;2023-02-25T07:20:49;7.43;;;2.20;;
18693;SDS011;9477;51.414;10.362;2023-02-25T07:22:51;5.27;;;1.90;;
18693;SDS011;9477;51.414;10.362;2023-02-25T07:24:56;8.80;;;1.70;;
18693;SDS011;9477;51.414;10.362;2023-02-25T07:26:59;4.53;;;1.53;;
18693;SDS011;9477;51.414;10.362;2023-02-25T07:29:01;8.53;;;2.80;;
18693;SDS011;9477;51.414;10.362;2023-02-25T07:31:08;2.33;;;1.27;;
18693;SDS011;9477;51.414;10.362;2023-02-25T07:33:12;2.37;;;1.27;;
18693;SDS011;9477;51.414;10.362;2023-02-25T07:35:15;6.43;;;1.40;;
18693;SDS011;9477;51.414;10.362;2023-02-25T07:37:18;9.10;;;1.50;;
18693;SDS011;9477;51.414;10.362;2023-02-25T07:39:21;6.70;;;1.80;;
18693;SDS011;9477;51.414;10.362;2023-02-25T07:41:27;4.03;;;1.70;;
18693;SDS011;9477;51.414;10.362;2023-02-25T07:43:30;2.93;;;1.30;;
18693;SDS011;9477;51.414;10.362;2023-02-25T07:45:33;5.00;;;1.43;;
18693;SDS011;9477;51.414;10.362;2023-02-25T07:47:36;5.67;;;1.77;;
18693;SDS011;9477;51.414;10.362;2023-02-25T07:49:39;4.77;;;1.47;;
18693;SDS011;9477;51.414;10.362;2023-02-25T07:51:42;6.43;;;1.63;;
18693;SDS011;9477;51.414;10.362;2023-02-25T07:53:45;2.40;;;1.30;;
18693;SDS011;9477;51.414;10.362;2023-02-25T07:55:49;5.73;;;1.80;;
18693;SDS011;9477;51.414;10.362;2023-02-25T07:57:53;5.50;;;1.47;;
18693;SDS011;9477;51.414;10.362;2023-02-25T07:59:56;4.23;;;1.70;;
18693;SDS011;9477;51.414;10.362;2023-02-25T08:01:59;3.00;;;1.57;;
18693;SDS011;9477;51.414;10.362;2023-02-25T08:04:03;4.00;;;1.60;;
18693;SDS011;9477;51.414;10.362;2023-02-25T08:06:07;4.27;;;1.70;;
18693;SDS011;9477;51.414;10.362;2023-02-25T08:08:10;3.63;;;1.57;;
18693;SDS011;9477;51.414;10.362;2023-02-25T08:10:13;3.83;;;1.67;;
18693;SDS011;9477;51.414;10.362;2023-02-25T08:12:16;4.83;;;1.47;;
18693;SDS011;9477;51.414;10.362;2023-02-25T08:14:20;7.93;;;1.77;;
18693;SDS011;9477;51.414;10.362;2023-02-25T08:16:23;6.07;;;1.40;;
18693;SDS011;9477;51.414;10.362;2023-02-25T08:18:26;6.37;;;2.13;;
18693;SDS011;9477;51.414;10.362;2023-02-25T08:20:29;11.13;;;1.90;;
18693;SDS011;9477;51.414;10.362;2023-02-25T08:22:32;5.50;;;2.40;;
18693;SDS011;9477;51.414;10.362;2023-02-25T08:24:35;4.60;;;1.80;;
18693;SDS011;9477;51.414;10.362;2023-02-25T08:26:38;2.53;;;1.40;;
18693;SDS011;9477;51.414;10.362;2023-02-25T08:28:41;9.03;;;1.67;;
18693;SDS011;9477;51.414;10.362;2023-02-25T08:30:46;4.87;;;1.63;;
18693;SDS011;9477;51.414;10.362;2023-02-25T08:32:49;3.10;;;1.40;;
18693;SDS011;9477;51.414;10.362;2023-02-25T08:34:52;3.27;;;1.47;;
18693;SDS011;9477;51.414;10.362;2023-02-25T08:36:56;5.53;;;1.40;;
18693;SDS011;9477;51.414;10.362;2023-02-25T08:38:59;4.13;;;1.60;;
18693;SDS011;9477;51.414;10.362;2023-02-25T08:41:03;2.77;;;1.20;;
18693;SDS011;9477;51.414;10.362;2023-02-25T08:43:06;2.90;;;1.00;;
18693;SDS011;9477;51.414;10.362;2023-02-25T08:45:09;2.03;;;0.77;;
18693;SDS011;9477;51.414;10.362;2023-02-25T08:47:14;1.17;;;0.70;;
18693;SDS011;9477;51.414;10.362;2023-02-25T08:49:17;2.10;;;0.90;;
18693;SDS011;9477;51.414;10.362;2023-02-25T08:51:21;1.40;;;0.90;;
18693;SDS011;9477;51.414;10.362;2023-02-25T08:53:25;3.30;;;0.80;;
18693;SDS011;9477;51.414;10.362;2023-02-25T08:55:28;2.23;;;0.80;;
18693;SDS011;9477;51.414;10.362;2023-02-25T08:57:32;1.40;;;0.80;;
18693;SDS011;9477;51.414;10.362;2023-02-25T08:59:35;1.50;;;0.90;;
18693;SDS011;9477;51.414;10.362;2023-02-25T09:01:39;1.57;;;0.90;;
18693;SDS011;9477;51.414;10.362;2023-02-25T09:03:47;4.40;;;0.90;;
18693;SDS011;9477;51.414;10.362;2023-02-25T09:05:52;1.87;;;0.97;;
18693;SDS011;9477;51.414;10.362;2023-02-25T09:07:56;3.87;;;0.90;;
18693;SDS011;9477;51.414;10.362;2023-02-25T09:09:59;1.37;;;0.73;;
18693;SDS011;9477;51.414;10.362;2023-02-25T09:12:03;1.27;;;0.90;;
18693;SDS011;9477;51.414;10.362;2023-02-25T09:14:07;6.53;;;1.10;;
18693;SDS011;9477;51.414;10.362;2023-02-25T09:16:10;3.73;;;1.10;;
18693;SDS011;9477;51.414;10.362;2023-02-25T09:18:17;1.40;;;0.90;;
18693;SDS011;9477;51.414;10.362;2023-02-25T09:20:21;1.27;;;0.70;;
18693;SDS011;9477;51.414;10.362;2023-02-25T09:22:26;1.80;;;0.80;;
18693;SDS011;9477;51.414;10.362;2023-02-25T09:24:28;0.93;;;0.83;;
18693;SDS011;9477;51.414;10.362;2023-02-25T09:26:33;1.53;;;1.00;;
18693;SDS011;9477;51.414;10.362;2023-02-25T09:28:36;2.87;;;0.80;;
18693;SDS011;9477;51.414;10.362;2023-02-25T09:30:39;1.47;;;0.90;;
18693;SDS011;9477;51.414;10.362;2023-02-25T09:32:42;1.37;;;1.00;;
18693;SDS011;9477;51.414;10.362;2023-02-25T09:34:46;2.63;;;0.90;;
18693;SDS011;9477;51.414;10.362;2023-02-25T09:36:51;1.60;;;0.80;;
18693;SDS011;9477;51.414;10.362;2023-02-25T09:38:55;2.53;;;1.00;;
18693;SDS011;9477;51.414;10.362;2023-02-25T09:40:58;2.60;;;1.37;;
18693;SDS011;9477;51.414;10.362;2023-02-25T09:43:03;1.70;;;1.00;;
18693;SDS011;9477;51.414;10.362;2023-02-25T09:45:13;3.97;;;1.00;;
18693;SDS011;9477;51.414;10.362;2023-02-25T09:47:20;1.87;;;0.70;;
18693;SDS011;9477;51.414;10.362;2023-02-25T09:49:30;1.63;;;0.90;;
18693;SDS011;9477;51.414;10.362;2023-02-25T09:51:36;1.30;;;0.70;;
18693;SDS011;9477;51.414;10.362;2023-02-25T09:53:46;2.80;;;0.87;;
18693;SDS011;9477;51.414;10.362;2023-02-25T09:55:55;5.20;;;0.97;;
18693;SDS011;9477;51.414;10.362;2023-02-25T09:58:00;3.57;;;1.10;;
18693;SDS011;9477;51.414;10.362;2023-02-25T10:00:13;2.50;;;0.90;;
18693;SDS011;9477;51.414;10.362;2023-02-25T10:02:20;2.30;;;0.70;;
18693;SDS011;9477;51.414;10.362;2023-02-25T10:04:29;2.67;;;1.10;;
18693;SDS011;9477;51.414;10.362;2023-02-25T10:06:36;3.53;;;1.10;;
18693;SDS011;9477;51.414;10.362;2023-02-25T10:08:47;1.77;;;0.60;;
18693;SDS011;9477;51.414;10.362;2023-02-25T10:10:58;1.90;;;0.70;;
18693;SDS011;9477;51.414;10.362;2023-02-25T10:13:10;3.60;;;1.00;;
18693;SDS011;9477;51.414;10.362;2023-02-25T10:15:25;1.43;;;0.77;;
18693;SDS011;9477;51.414;10.362;2023-02-25T10:17:36;2.27;;;0.93;;
18693;SDS011;9477;51.414;10.362;2023-02-25T10:19:51;4.10;;;0.80;;
18693;SDS011;9477;51.414;10.362;2023-02-25T10:22:22;2.63;;;0.90;;
18693;SDS011;9477;51.414;10.362;2023-02-25T10:24:37;3.00;;;0.87;;
18693;SDS011;9477;51.414;10.362;2023-02-25T10:26:45;2.30;;;0.80;;
18693;SDS011;9477;51.414;10.362;2023-02-25T10:28:51;1.77;;;0.90;;
18693;SDS011;9477;51.414;10.362;2023-02-25T10:30:57;1.60;;;0.70;;
18693;SDS011;9477;51.414;10.362;2023-02-25T10:33:07;1.73;;;0.90;;
18693;SDS011;9477;51.414;10.362;2023-02-25T10:35:18;1.10;;;0.90;;
18693;SDS011;9477;51.414;10.362;2023-02-25T10:37:24;2.83;;;0.93;;
18693;SDS011;9477;51.414;10.362;2023-02-25T10:39:31;9.70;;;2.93;;
18693;SDS011;9477;51.414;10.362;2023-02-25T10:41:37;3.07;;;1.57;;
18693;SDS011;9477;51.414;10.362;2023-02-25T10:43:41;1.47;;;0.73;;
18693;SDS011;9477;51.414;10.362;2023-02-25T10:45:44;2.83;;;0.70;;
18693;SDS011;9477;51.414;10.362;2023-02-25T10:47:53;2.90;;;1.07;;
18693;SDS011;9477;51.414;10.362;2023-02-25T10:50:12;5.77;;;1.00;;
18693;SDS011;9477;51.414;10.362;2023-02-25T10:52:19;3.23;;;1.00;;
18693;SDS011;9477;51.414;10.362;2023-02-25T10:54:22;4.43;;;0.93;;
18693;SDS011;9477;51.414;10.362;2023-02-25T10:56:26;1.80;;;0.83;;
18693;SDS011;9477;51.414;10.362;2023-02-25T10:58:36;2.40;;;0.90;;
18693;SDS011;9477;51.414;10.362;2023-02-25T11:00:41;5.80;;;1.00;;
18693;SDS011;9477;51.414;10.362;2023-02-25T11:02:47;2.13;;;0.90;;
18693;SDS011;9477;51.414;10.362;2023-02-25T11:04:52;1.80;;;0.93;;
18693;SDS011;9477;51.414;10.362;2023-02-25T11:06:56;2.20;;;1.23;;
18693;SDS011;9477;51.414;10.362;2023-02-25T11:09:00;1.27;;;0.70;;
18693;SDS011;9477;51.414;10.362;2023-02-25T11:11:10;2.13;;;0.70;;
18693;SDS011;9477;51.414;10.362;2023-02-25T11:13:25;2.33;;;0.80;;
18693;SDS011;9477;51.414;10.362;2023-02-25T11:15:32;2.43;;;1.07;;
18693;SDS011;9477;51.414;10.362;2023-02-25T11:17:46;2.10;;;0.90;;
18693;SDS011;9477;51.414;10.362;2023-02-25T11:19:49;2.63;;;1.20;;
18693;SDS011;9477;51.414;10.362;2023-02-25T11:22:04;1.83;;;0.80;;
18693;SDS011;9477;51.414;10.362;2023-02-25T11:24:12;2.17;;;0.90;;
18693;SDS011;9477;51.414;10.362;2023-02-25T11:26:24;1.43;;;0.80;;
18693;SDS011;9477;51.414;10.362;2023-02-25T11:28:32;2.10;;;1.00;;
18693;SDS011;9477;51.414;10.362;2023-02-25T11:30:39;1.10;;;0.80;;
18693;SDS011;9477;51.414;10.362;2023-02-25T11:32:42;2.70;;;0.80;;
18693;SDS011;9477;51.414;10.362;2023-02-25T11:34:50;1.30;;;0.90;;
18693;SDS011;9477;51.414;10.362;2023-02-25T11:37:00;4.83;;;1.10;;
18693;SDS011;9477;51.414;10.362;2023-02-25T11:39:27;2.37;;;0.90;;
18693;SDS011;9477;51.414;10.362;2023-02-25T11:41:31;5.97;;;1.40;;
18693;SDS011;9477;51.414;10.362;2023-02-25T11:43:35;1.77;;;0.90;;
18693;SDS011;9477;51.414;10.362;2023-02-25T11:45:47;3.20;;;1.00;;
18693;SDS011;9477;51.414;10.362;2023-02-25T11:47:53;3.03;;;1.17;;
18693;SDS011;9477;51.414;10.362;2023-02-25T11:50:17;2.83;;;1.03;;
18693;SDS011;9477;51.414;10.362;2023-02-25T11:52:26;4.93;;;1.23;;
18693;SDS011;9477;51.414;10.362;2023-02-25T11:54:40;3.70;;;1.17;;
18693;SDS011;9477;51.414;10.362;2023-02-25T11:56:54;1.53;;;0.90;;
18693;SDS011;9477;51.414;10.362;2023-02-25T11:59:09;2.73;;;0.90;;
18693;SDS011;9477;51.414;10.362;2023-02-25T12:01:27;2.13;;;1.20;;
18693;SDS011;9477;51.414;10.362;2023-02-25T12:03:43;2.00;;;0.97;;
18693;SDS011;9477;51.414;10.362;2023-02-25T12:06:08;2.83;;;1.10;;
18693;SDS011;9477;51.414;10.362;2023-02-25T12:08:26;5.80;;;1.17;;
18693;SDS011;9477;51.414;10.362;2023-02-25T12:13:51;1.50;;;0.93;;
18693;SDS011;9477;51.414;10.362;2023-02-25T12:18:57;1.13;;;0.80;;
18693;SDS011;9477;51.414;10.362;2023-02-25T12:21:28;2.00;;;0.80;;
18693;SDS011;9477;51.414;10.362;2023-02-25T12:26:21;0.70;;;0.70;;
18693;SDS011;9477;51.414;10.362;2023-02-25T12:28:39;1.23;;;0.80;;
18693;SDS011;9477;51.414;10.362;2023-02-25T12:31:05;1.53;;;0.87;;
18693;SDS011;9477;51.414;10.362;2023-02-25T12:33:28;0.60;;;0.60;;
18693;SDS011;9477;51.414;10.362;2023-02-25T12:35:54;1.20;;;0.80;;
18693;SDS011;9477;51.414;10.362;2023-02-25T12:38:15;1.70;;;1.00;;
18693;SDS011;9477;51.414;10.362;2023-02-25T12:40:37;2.70;;;0.90;;
18693;SDS011;9477;51.414;10.362;2023-02-25T12:42:54;1.90;;;1.00;;
18693;SDS011;9477;51.414;10.362;2023-02-25T12:47:53;1.10;;;0.90;;
18693;SDS011;9477;51.414;10.362;2023-02-25T12:50:18;0.97;;;0.70;;
18693;SDS011;9477;51.414;10.362;2023-02-25T12:52:39;2.13;;;1.20;;